sensor_id;sensor_type;location;lat;lon;timestamp;P1;durP1;ratioP1;P2;durP2;ratioP2
60935;SDS011;46804;51.786;19.520;2023-06-22T00:00:17;22.38;;;19.00;;
60935;SDS011;46804;51.786;19.520;2023-06-22T00:04:38;24.95;;;18.80;;
60935;SDS011;46804;51.786;19.520;2023-06-22T00:08:39;22.48;;;19.40;;
60935;SDS011;46804;51.786;19.520;2023-06-22T00:12:40;23.90;;;19.33;;
60935;SDS011;46804;51.786;19.520;2023-06-22T00:16:41;26.52;;;20.27;;
60935;SDS011;46804;51.786;19.520;2023-06-22T00:20:43;24.92;;;20.15;;
60935;SDS011;46804;51.786;19.520;2023-06-22T00:24:46;25.77;;;20.25;;
60935;SDS011;46804;51.786;19.520;2023-06-22T00:28:46;23.48;;;20.40;;
60935;SDS011;46804;51.786;19.520;2023-06-22T00:32:47;28.75;;;22.05;;
60935;SDS011;46804;51.786;19.520;2023-06-22T00:36:48;28.60;;;23.65;;
60935;SDS011;46804;51.786;19.520;2023-06-22T00:40:49;28.60;;;21.23;;
60935;SDS011;46804;51.786;19.520;2023-06-22T00:44:49;30.07;;;22.87;;
60935;SDS011;46804;51.786;19.520;2023-06-22T00:48:50;29.58;;;23.75;;
60935;SDS011;46804;51.786;19.520;2023-06-22T00:52:56;28.33;;;23.48;;
60935;SDS011;46804;51.786;19.520;2023-06-22T00:56:58;35.70;;;25.88;;
60935;SDS011;46804;51.786;19.520;2023-06-22T01:00:59;30.60;;;25.27;;
60935;SDS011;46804;51.786;19.520;2023-06-22T01:05:01;29.58;;;23.08;;
60935;SDS011;46804;51.786;19.520;2023-06-22T01:09:06;34.05;;;25.85;;
60935;SDS011;46804;51.786;19.520;2023-06-22T01:17:48;31.15;;;23.77;;
60935;SDS011;46804;51.786;19.520;2023-06-22T01:21:52;30.38;;;23.90;;
60935;SDS011;46804;51.786;19.520;2023-06-22T01:26:02;28.10;;;22.67;;
60935;SDS011;46804;51.786;19.520;2023-06-22T01:30:09;34.93;;;23.97;;
60935;SDS011;46804;51.786;19.520;2023-06-22T01:34:10;30.05;;;21.85;;
60935;SDS011;46804;51.786;19.520;2023-06-22T01:38:13;28.92;;;21.27;;
60935;SDS011;46804;51.786;19.520;2023-06-22T01:42:13;28.30;;;20.80;;
60935;SDS011;46804;51.786;19.520;2023-06-22T01:46:14;28.75;;;20.10;;
60935;SDS011;46804;51.786;19.520;2023-06-22T01:50:15;27.70;;;19.88;;
60935;SDS011;46804;51.786;19.520;2023-06-22T01:54:17;28.70;;;21.23;;
60935;SDS011;46804;51.786;19.520;2023-06-22T01:58:17;25.10;;;19.70;;
60935;SDS011;46804;51.786;19.520;2023-06-22T02:06:27;25.63;;;19.65;;
60935;SDS011;46804;51.786;19.520;2023-06-22T02:10:36;30.25;;;20.02;;
60935;SDS011;46804;51.786;19.520;2023-06-22T02:14:38;26.40;;;18.70;;
60935;SDS011;46804;51.786;19.520;2023-06-22T02:18:45;28.25;;;20.38;;
60935;SDS011;46804;51.786;19.520;2023-06-22T02:22:47;23.98;;;18.13;;
60935;SDS011;46804;51.786;19.520;2023-06-22T02:26:47;25.42;;;17.75;;
60935;SDS011;46804;51.786;19.520;2023-06-22T02:30:48;23.58;;;17.83;;
60935;SDS011;46804;51.786;19.520;2023-06-22T02:34:49;22.95;;;17.10;;
60935;SDS011;46804;51.786;19.520;2023-06-22T02:38:49;24.52;;;17.63;;
60935;SDS011;46804;51.786;19.520;2023-06-22T02:42:51;22.55;;;17.15;;
60935;SDS011;46804;51.786;19.520;2023-06-22T02:46:51;22.75;;;17.13;;
60935;SDS011;46804;51.786;19.520;2023-06-22T02:50:52;20.83;;;16.65;;
60935;SDS011;46804;51.786;19.520;2023-06-22T02:54:53;23.27;;;16.90;;
60935;SDS011;46804;51.786;19.520;2023-06-22T02:58:53;22.40;;;16.75;;
60935;SDS011;46804;51.786;19.520;2023-06-22T03:02:54;22.75;;;16.23;;
60935;SDS011;46804;51.786;19.520;2023-06-22T03:06:55;22.33;;;16.20;;
60935;SDS011;46804;51.786;19.520;2023-06-22T03:10:56;22.00;;;16.48;;
60935;SDS011;46804;51.786;19.520;2023-06-22T03:14:57;22.45;;;16.83;;
60935;SDS011;46804;51.786;19.520;2023-06-22T03:18:58;23.55;;;15.73;;
60935;SDS011;46804;51.786;19.520;2023-06-22T03:22:58;25.48;;;15.75;;
60935;SDS011;46804;51.786;19.520;2023-06-22T03:26:59;21.63;;;15.00;;
60935;SDS011;46804;51.786;19.520;2023-06-22T03:31:00;18.73;;;14.35;;
60935;SDS011;46804;51.786;19.520;2023-06-22T03:35:01;20.05;;;15.20;;
60935;SDS011;46804;51.786;19.520;2023-06-22T03:39:02;20.40;;;14.32;;
60935;SDS011;46804;51.786;19.520;2023-06-22T03:43:03;18.75;;;13.05;;
60935;SDS011;46804;51.786;19.520;2023-06-22T03:47:04;17.70;;;13.90;;
60935;SDS011;46804;51.786;19.520;2023-06-22T03:51:05;18.02;;;13.60;;
60935;SDS011;46804;51.786;19.520;2023-06-22T03:55:06;19.67;;;12.55;;
60935;SDS011;46804;51.786;19.520;2023-06-22T03:59:08;16.38;;;12.55;;
60935;SDS011;46804;51.786;19.520;2023-06-22T04:03:08;19.00;;;13.53;;
60935;SDS011;46804;51.786;19.520;2023-06-22T04:07:09;18.92;;;12.02;;
60935;SDS011;46804;51.786;19.520;2023-06-22T04:11:09;14.07;;;11.13;;
60935;SDS011;46804;51.786;19.520;2023-06-22T04:15:10;16.02;;;11.77;;
60935;SDS011;46804;51.786;19.520;2023-06-22T04:19:12;15.00;;;10.90;;
60935;SDS011;46804;51.786;19.520;2023-06-22T04:23:16;18.02;;;11.95;;
60935;SDS011;46804;51.786;19.520;2023-06-22T04:27:17;16.90;;;11.68;;
60935;SDS011;46804;51.786;19.520;2023-06-22T04:31:19;16.20;;;10.80;;
60935;SDS011;46804;51.786;19.520;2023-06-22T04:35:19;13.20;;;10.27;;
60935;SDS011;46804;51.786;19.520;2023-06-22T04:39:22;12.73;;;9.98;;
60935;SDS011;46804;51.786;19.520;2023-06-22T04:43:24;13.63;;;9.82;;
60935;SDS011;46804;51.786;19.520;2023-06-22T04:47:24;14.15;;;8.90;;
60935;SDS011;46804;51.786;19.520;2023-06-22T04:51:25;11.55;;;8.57;;
60935;SDS011;46804;51.786;19.520;2023-06-22T04:55:31;11.48;;;7.88;;
60935;SDS011;46804;51.786;19.520;2023-06-22T04:59:32;12.00;;;8.70;;
60935;SDS011;46804;51.786;19.520;2023-06-22T05:03:33;11.82;;;8.00;;
60935;SDS011;46804;51.786;19.520;2023-06-22T05:07:34;13.80;;;8.20;;
60935;SDS011;46804;51.786;19.520;2023-06-22T05:11:35;13.07;;;8.15;;
60935;SDS011;46804;51.786;19.520;2023-06-22T05:15:35;9.88;;;7.82;;
60935;SDS011;46804;51.786;19.520;2023-06-22T05:19:41;11.82;;;8.38;;
60935;SDS011;46804;51.786;19.520;2023-06-22T05:23:45;10.45;;;7.70;;
60935;SDS011;46804;51.786;19.520;2023-06-22T05:27:46;13.00;;;7.60;;
60935;SDS011;46804;51.786;19.520;2023-06-22T05:31:46;14.13;;;7.35;;
60935;SDS011;46804;51.786;19.520;2023-06-22T05:35:47;13.30;;;7.85;;
60935;SDS011;46804;51.786;19.520;2023-06-22T05:39:48;9.23;;;7.22;;
60935;SDS011;46804;51.786;19.520;2023-06-22T05:43:48;10.07;;;6.07;;
60935;SDS011;46804;51.786;19.520;2023-06-22T05:47:49;12.50;;;6.85;;
60935;SDS011;46804;51.786;19.520;2023-06-22T05:51:50;8.52;;;6.85;;
60935;SDS011;46804;51.786;19.520;2023-06-22T05:55:51;9.35;;;6.43;;
60935;SDS011;46804;51.786;19.520;2023-06-22T05:59:51;10.57;;;6.63;;
60935;SDS011;46804;51.786;19.520;2023-06-22T06:03:54;11.05;;;5.97;;
60935;SDS011;46804;51.786;19.520;2023-06-22T06:07:54;8.93;;;6.28;;
60935;SDS011;46804;51.786;19.520;2023-06-22T06:11:55;8.73;;;5.88;;
60935;SDS011;46804;51.786;19.520;2023-06-22T06:15:56;7.63;;;6.07;;
60935;SDS011;46804;51.786;19.520;2023-06-22T06:19:59;9.73;;;5.68;;
60935;SDS011;46804;51.786;19.520;2023-06-22T06:24:00;7.03;;;5.25;;
60935;SDS011;46804;51.786;19.520;2023-06-22T06:28:01;13.48;;;4.90;;
60935;SDS011;46804;51.786;19.520;2023-06-22T06:32:01;9.52;;;4.68;;
60935;SDS011;46804;51.786;19.520;2023-06-22T06:36:02;7.95;;;5.13;;
60935;SDS011;46804;51.786;19.520;2023-06-22T06:40:04;6.97;;;4.80;;
60935;SDS011;46804;51.786;19.520;2023-06-22T06:44:10;7.95;;;4.32;;
60935;SDS011;46804;51.786;19.520;2023-06-22T06:48:11;8.25;;;4.53;;
60935;SDS011;46804;51.786;19.520;2023-06-22T06:52:12;7.22;;;4.50;;
60935;SDS011;46804;51.786;19.520;2023-06-22T06:56:12;8.35;;;4.65;;
60935;SDS011;46804;51.786;19.520;2023-06-22T07:00:13;6.63;;;4.53;;
60935;SDS011;46804;51.786;19.520;2023-06-22T07:04:15;7.63;;;3.92;;
60935;SDS011;46804;51.786;19.520;2023-06-22T07:08:16;7.07;;;4.60;;
60935;SDS011;46804;51.786;19.520;2023-06-22T07:12:17;6.43;;;4.57;;
60935;SDS011;46804;51.786;19.520;2023-06-22T07:16:17;11.70;;;5.30;;
60935;SDS011;46804;51.786;19.520;2023-06-22T07:20:18;7.78;;;4.70;;
60935;SDS011;46804;51.786;19.520;2023-06-22T07:24:22;5.95;;;3.90;;
60935;SDS011;46804;51.786;19.520;2023-06-22T07:28:24;6.38;;;3.97;;
60935;SDS011;46804;51.786;19.520;2023-06-22T07:32:25;5.60;;;3.97;;
60935;SDS011;46804;51.786;19.520;2023-06-22T07:36:26;6.35;;;3.75;;
60935;SDS011;46804;51.786;19.520;2023-06-22T07:40:26;5.72;;;3.42;;
60935;SDS011;46804;51.786;19.520;2023-06-22T07:44:27;5.30;;;3.60;;
60935;SDS011;46804;51.786;19.520;2023-06-22T07:48:28;5.18;;;3.17;;
60935;SDS011;46804;51.786;19.520;2023-06-22T07:52:29;4.47;;;3.10;;
60935;SDS011;46804;51.786;19.520;2023-06-22T07:56:31;6.30;;;3.30;;
60935;SDS011;46804;51.786;19.520;2023-06-22T08:00:33;7.45;;;3.10;;
60935;SDS011;46804;51.786;19.520;2023-06-22T08:04:34;4.83;;;3.27;;
60935;SDS011;46804;51.786;19.520;2023-06-22T08:08:36;3.97;;;2.92;;
60935;SDS011;46804;51.786;19.520;2023-06-22T08:12:37;4.50;;;3.00;;
60935;SDS011;46804;51.786;19.520;2023-06-22T08:16:37;6.57;;;3.22;;
60935;SDS011;46804;51.786;19.520;2023-06-22T08:20:38;5.90;;;3.42;;
60935;SDS011;46804;51.786;19.520;2023-06-22T08:24:39;6.10;;;3.13;;
60935;SDS011;46804;51.786;19.520;2023-06-22T08:28:39;4.65;;;2.90;;
60935;SDS011;46804;51.786;19.520;2023-06-22T08:32:40;4.57;;;2.83;;
60935;SDS011;46804;51.786;19.520;2023-06-22T08:36:41;5.28;;;2.75;;
60935;SDS011;46804;51.786;19.520;2023-06-22T08:40:45;4.57;;;2.60;;
60935;SDS011;46804;51.786;19.520;2023-06-22T08:44:45;4.95;;;2.80;;
60935;SDS011;46804;51.786;19.520;2023-06-22T08:48:46;4.30;;;2.83;;
60935;SDS011;46804;51.786;19.520;2023-06-22T08:52:47;6.43;;;3.28;;
60935;SDS011;46804;51.786;19.520;2023-06-22T08:56:47;4.85;;;3.20;;
60935;SDS011;46804;51.786;19.520;2023-06-22T09:00:48;3.88;;;2.50;;
60935;SDS011;46804;51.786;19.520;2023-06-22T09:04:49;3.78;;;2.42;;
60935;SDS011;46804;51.786;19.520;2023-06-22T09:08:55;5.03;;;2.50;;
60935;SDS011;46804;51.786;19.520;2023-06-22T09:12:57;5.00;;;2.50;;
60935;SDS011;46804;51.786;19.520;2023-06-22T09:16:57;6.60;;;2.73;;
60935;SDS011;46804;51.786;19.520;2023-06-22T09:20:58;6.38;;;2.75;;
60935;SDS011;46804;51.786;19.520;2023-06-22T09:24:59;7.30;;;2.58;;
60935;SDS011;46804;51.786;19.520;2023-06-22T09:29:00;4.28;;;2.75;;
60935;SDS011;46804;51.786;19.520;2023-06-22T09:33:01;5.38;;;2.67;;
60935;SDS011;46804;51.786;19.520;2023-06-22T09:37:02;4.25;;;2.50;;
60935;SDS011;46804;51.786;19.520;2023-06-22T09:41:03;5.03;;;2.58;;
60935;SDS011;46804;51.786;19.520;2023-06-22T09:45:05;4.87;;;2.30;;
60935;SDS011;46804;51.786;19.520;2023-06-22T09:49:06;4.28;;;2.65;;
60935;SDS011;46804;51.786;19.520;2023-06-22T09:53:07;5.13;;;2.70;;
60935;SDS011;46804;51.786;19.520;2023-06-22T09:57:08;5.60;;;2.60;;
60935;SDS011;46804;51.786;19.520;2023-06-22T10:01:08;4.82;;;2.78;;
60935;SDS011;46804;51.786;19.520;2023-06-22T10:05:10;5.65;;;2.60;;
60935;SDS011;46804;51.786;19.520;2023-06-22T10:09:11;3.55;;;2.33;;
60935;SDS011;46804;51.786;19.520;2023-06-22T10:13:11;6.17;;;2.87;;
60935;SDS011;46804;51.786;19.520;2023-06-22T10:17:12;4.07;;;2.65;;
60935;SDS011;46804;51.786;19.520;2023-06-22T10:21:12;4.80;;;2.07;;
60935;SDS011;46804;51.786;19.520;2023-06-22T10:25:13;5.85;;;2.40;;
60935;SDS011;46804;51.786;19.520;2023-06-22T10:29:14;4.18;;;2.42;;
60935;SDS011;46804;51.786;19.520;2023-06-22T10:33:14;4.47;;;2.40;;
60935;SDS011;46804;51.786;19.520;2023-06-22T10:37:15;4.73;;;2.37;;
60935;SDS011;46804;51.786;19.520;2023-06-22T10:41:16;3.80;;;2.50;;
60935;SDS011;46804;51.786;19.520;2023-06-22T10:45:17;6.53;;;2.30;;
60935;SDS011;46804;51.786;19.520;2023-06-22T10:49:18;4.13;;;2.27;;
60935;SDS011;46804;51.786;19.520;2023-06-22T10:53:19;4.23;;;2.30;;
60935;SDS011;46804;51.786;19.520;2023-06-22T10:57:19;8.30;;;2.90;;
60935;SDS011;46804;51.786;19.520;2023-06-22T11:01:20;4.43;;;2.97;;
60935;SDS011;46804;51.786;19.520;2023-06-22T11:05:21;4.73;;;2.40;;
60935;SDS011;46804;51.786;19.520;2023-06-22T11:09:21;4.00;;;2.67;;
60935;SDS011;46804;51.786;19.520;2023-06-22T11:13:23;6.97;;;2.17;;
60935;SDS011;46804;51.786;19.520;2023-06-22T11:17:23;4.55;;;2.78;;
60935;SDS011;46804;51.786;19.520;2023-06-22T11:21:24;3.80;;;2.40;;
60935;SDS011;46804;51.786;19.520;2023-06-22T11:25:25;3.87;;;2.50;;
60935;SDS011;46804;51.786;19.520;2023-06-22T11:29:26;5.80;;;2.67;;
60935;SDS011;46804;51.786;19.520;2023-06-22T11:33:26;4.10;;;2.47;;
60935;SDS011;46804;51.786;19.520;2023-06-22T11:37:27;5.33;;;2.43;;
60935;SDS011;46804;51.786;19.520;2023-06-22T11:41:28;4.00;;;2.50;;
60935;SDS011;46804;51.786;19.520;2023-06-22T11:45:28;3.93;;;2.40;;
60935;SDS011;46804;51.786;19.520;2023-06-22T11:49:30;3.53;;;2.47;;
60935;SDS011;46804;51.786;19.520;2023-06-22T11:57:35;3.80;;;2.50;;
60935;SDS011;46804;51.786;19.520;2023-06-22T12:01:36;4.00;;;2.20;;
60935;SDS011;46804;51.786;19.520;2023-06-22T12:05:38;3.17;;;2.30;;
60935;SDS011;46804;51.786;19.520;2023-06-22T12:09:39;4.88;;;2.45;;
60935;SDS011;46804;51.786;19.520;2023-06-22T12:13:41;5.00;;;2.35;;
60935;SDS011;46804;51.786;19.520;2023-06-22T12:17:41;5.10;;;2.50;;
60935;SDS011;46804;51.786;19.520;2023-06-22T12:21:42;5.10;;;2.40;;
60935;SDS011;46804;51.786;19.520;2023-06-22T12:25:45;5.07;;;2.40;;
60935;SDS011;46804;51.786;19.520;2023-06-22T12:29:46;4.90;;;2.70;;
60935;SDS011;46804;51.786;19.520;2023-06-22T12:37:48;4.35;;;2.55;;
60935;SDS011;46804;51.786;19.520;2023-06-22T12:41:49;5.50;;;2.80;;
60935;SDS011;46804;51.786;19.520;2023-06-22T12:45:50;6.53;;;2.73;;
60935;SDS011;46804;51.786;19.520;2023-06-22T12:49:50;10.60;;;3.00;;
60935;SDS011;46804;51.786;19.520;2023-06-22T12:53:51;5.10;;;2.90;;
60935;SDS011;46804;51.786;19.520;2023-06-22T12:57:52;4.33;;;2.47;;
60935;SDS011;46804;51.786;19.520;2023-06-22T13:01:52;6.07;;;2.97;;
60935;SDS011;46804;51.786;19.520;2023-06-22T13:05:53;4.60;;;3.00;;
60935;SDS011;46804;51.786;19.520;2023-06-22T13:09:54;5.30;;;2.83;;
60935;SDS011;46804;51.786;19.520;2023-06-22T13:13:55;5.27;;;2.87;;
60935;SDS011;46804;51.786;19.520;2023-06-22T13:17:55;8.50;;;2.80;;
60935;SDS011;46804;51.786;19.520;2023-06-22T13:21:56;4.43;;;2.73;;
60935;SDS011;46804;51.786;19.520;2023-06-22T13:25:57;5.50;;;2.70;;
60935;SDS011;46804;51.786;19.520;2023-06-22T13:29:58;7.65;;;2.70;;
60935;SDS011;46804;51.786;19.520;2023-06-22T13:33:59;4.68;;;2.67;;
60935;SDS011;46804;51.786;19.520;2023-06-22T13:38:00;3.77;;;2.80;;
60935;SDS011;46804;51.786;19.520;2023-06-22T13:42:00;4.27;;;2.80;;
60935;SDS011;46804;51.786;19.520;2023-06-22T13:46:01;6.90;;;3.13;;
60935;SDS011;46804;51.786;19.520;2023-06-22T13:50:02;6.03;;;2.80;;
60935;SDS011;46804;51.786;19.520;2023-06-22T13:54:03;5.07;;;3.15;;
60935;SDS011;46804;51.786;19.520;2023-06-22T13:58:04;7.57;;;2.67;;
60935;SDS011;46804;51.786;19.520;2023-06-22T14:02:05;4.10;;;2.57;;
60935;SDS011;46804;51.786;19.520;2023-06-22T14:06:06;4.40;;;2.70;;
60935;SDS011;46804;51.786;19.520;2023-06-22T14:10:07;5.37;;;2.80;;
60935;SDS011;46804;51.786;19.520;2023-06-22T14:14:09;7.20;;;2.78;;
60935;SDS011;46804;51.786;19.520;2023-06-22T14:18:09;6.78;;;2.60;;
60935;SDS011;46804;51.786;19.520;2023-06-22T14:22:10;6.32;;;2.53;;
60935;SDS011;46804;51.786;19.520;2023-06-22T14:26:11;4.97;;;2.75;;
60935;SDS011;46804;51.786;19.520;2023-06-22T14:30:11;5.80;;;2.67;;
60935;SDS011;46804;51.786;19.520;2023-06-22T14:34:12;8.18;;;3.00;;
60935;SDS011;46804;51.786;19.520;2023-06-22T14:38:13;6.77;;;2.70;;
60935;SDS011;46804;51.786;19.520;2023-06-22T14:42:14;7.00;;;2.92;;
60935;SDS011;46804;51.786;19.520;2023-06-22T14:46:15;5.50;;;2.70;;
60935;SDS011;46804;51.786;19.520;2023-06-22T14:50:16;4.95;;;2.72;;
60935;SDS011;46804;51.786;19.520;2023-06-22T14:54:17;5.05;;;2.75;;
60935;SDS011;46804;51.786;19.520;2023-06-22T14:58:18;5.50;;;2.92;;
60935;SDS011;46804;51.786;19.520;2023-06-22T15:02:18;4.72;;;2.75;;
60935;SDS011;46804;51.786;19.520;2023-06-22T15:06:19;4.38;;;2.70;;
60935;SDS011;46804;51.786;19.520;2023-06-22T15:10:20;7.97;;;2.92;;
60935;SDS011;46804;51.786;19.520;2023-06-22T15:14:21;4.78;;;2.83;;
60935;SDS011;46804;51.786;19.520;2023-06-22T15:18:22;5.25;;;2.80;;
60935;SDS011;46804;51.786;19.520;2023-06-22T15:22:22;4.10;;;2.90;;
60935;SDS011;46804;51.786;19.520;2023-06-22T15:26:23;3.95;;;2.70;;
60935;SDS011;46804;51.786;19.520;2023-06-22T15:30:25;6.55;;;2.38;;
60935;SDS011;46804;51.786;19.520;2023-06-22T15:34:26;5.35;;;2.83;;
60935;SDS011;46804;51.786;19.520;2023-06-22T15:38:26;5.80;;;2.70;;
60935;SDS011;46804;51.786;19.520;2023-06-22T15:42:27;4.80;;;2.63;;
60935;SDS011;46804;51.786;19.520;2023-06-22T15:46:28;3.97;;;2.33;;
60935;SDS011;46804;51.786;19.520;2023-06-22T15:50:28;4.10;;;2.35;;
60935;SDS011;46804;51.786;19.520;2023-06-22T15:54:29;5.07;;;2.60;;
60935;SDS011;46804;51.786;19.520;2023-06-22T15:58:30;4.25;;;2.70;;
60935;SDS011;46804;51.786;19.520;2023-06-22T16:02:30;6.03;;;2.90;;
60935;SDS011;46804;51.786;19.520;2023-06-22T16:06:31;4.45;;;2.70;;
60935;SDS011;46804;51.786;19.520;2023-06-22T16:10:32;4.20;;;2.38;;
60935;SDS011;46804;51.786;19.520;2023-06-22T16:14:32;4.88;;;2.78;;
60935;SDS011;46804;51.786;19.520;2023-06-22T16:18:34;5.32;;;3.10;;
60935;SDS011;46804;51.786;19.520;2023-06-22T16:22:35;8.93;;;2.80;;
60935;SDS011;46804;51.786;19.520;2023-06-22T16:26:39;4.88;;;2.72;;
60935;SDS011;46804;51.786;19.520;2023-06-22T16:30:40;5.68;;;2.65;;
60935;SDS011;46804;51.786;19.520;2023-06-22T16:34:41;8.48;;;2.80;;
60935;SDS011;46804;51.786;19.520;2023-06-22T16:38:42;3.83;;;2.70;;
60935;SDS011;46804;51.786;19.520;2023-06-22T16:42:45;7.75;;;2.65;;
60935;SDS011;46804;51.786;19.520;2023-06-22T16:46:49;6.88;;;2.70;;
60935;SDS011;46804;51.786;19.520;2023-06-22T16:50:49;4.22;;;2.60;;
60935;SDS011;46804;51.786;19.520;2023-06-22T16:54:50;7.38;;;2.85;;
60935;SDS011;46804;51.786;19.520;2023-06-22T16:58:51;3.92;;;2.67;;
60935;SDS011;46804;51.786;19.520;2023-06-22T17:02:54;5.00;;;2.67;;
60935;SDS011;46804;51.786;19.520;2023-06-22T17:06:59;4.18;;;2.47;;
60935;SDS011;46804;51.786;19.520;2023-06-22T17:11:05;5.65;;;2.85;;
60935;SDS011;46804;51.786;19.520;2023-06-22T17:15:11;4.57;;;2.85;;
60935;SDS011;46804;51.786;19.520;2023-06-22T17:19:12;5.93;;;2.70;;
60935;SDS011;46804;51.786;19.520;2023-06-22T17:23:13;5.05;;;2.78;;
60935;SDS011;46804;51.786;19.520;2023-06-22T17:27:14;9.30;;;3.10;;
60935;SDS011;46804;51.786;19.520;2023-06-22T17:31:14;5.93;;;2.70;;
60935;SDS011;46804;51.786;19.520;2023-06-22T17:35:15;5.25;;;2.70;;
60935;SDS011;46804;51.786;19.520;2023-06-22T17:39:20;5.68;;;2.45;;
60935;SDS011;46804;51.786;19.520;2023-06-22T17:43:22;8.32;;;2.53;;
60935;SDS011;46804;51.786;19.520;2023-06-22T17:47:23;5.55;;;2.83;;
60935;SDS011;46804;51.786;19.520;2023-06-22T17:51:27;5.90;;;2.80;;
60935;SDS011;46804;51.786;19.520;2023-06-22T17:55:27;5.85;;;3.25;;
60935;SDS011;46804;51.786;19.520;2023-06-22T17:59:28;6.55;;;2.90;;
60935;SDS011;46804;51.786;19.520;2023-06-22T18:03:29;8.27;;;2.95;;
60935;SDS011;46804;51.786;19.520;2023-06-22T18:07:30;6.18;;;2.80;;
60935;SDS011;46804;51.786;19.520;2023-06-22T18:11:44;7.28;;;2.72;;
60935;SDS011;46804;51.786;19.520;2023-06-22T18:15:49;7.43;;;2.80;;
60935;SDS011;46804;51.786;19.520;2023-06-22T18:19:52;7.87;;;2.70;;
60935;SDS011;46804;51.786;19.520;2023-06-22T18:23:55;5.78;;;2.67;;
60935;SDS011;46804;51.786;19.520;2023-06-22T18:27:56;4.30;;;2.60;;
60935;SDS011;46804;51.786;19.520;2023-06-22T18:31:57;8.05;;;3.03;;
60935;SDS011;46804;51.786;19.520;2023-06-22T18:35:58;7.75;;;3.05;;
60935;SDS011;46804;51.786;19.520;2023-06-22T18:40:01;10.18;;;2.85;;
60935;SDS011;46804;51.786;19.520;2023-06-22T18:44:11;4.93;;;2.60;;
60935;SDS011;46804;51.786;19.520;2023-06-22T18:48:24;6.43;;;2.70;;
60935;SDS011;46804;51.786;19.520;2023-06-22T18:52:25;5.47;;;2.55;;
60935;SDS011;46804;51.786;19.520;2023-06-22T18:56:26;5.88;;;2.83;;
60935;SDS011;46804;51.786;19.520;2023-06-22T19:00:30;7.82;;;3.30;;
60935;SDS011;46804;51.786;19.520;2023-06-22T19:04:31;5.25;;;3.03;;
60935;SDS011;46804;51.786;19.520;2023-06-22T19:17:13;12.30;;;3.42;;
60935;SDS011;46804;51.786;19.520;2023-06-22T19:21:20;16.73;;;3.88;;
60935;SDS011;46804;51.786;19.520;2023-06-22T19:25:26;10.10;;;2.97;;
60935;SDS011;46804;51.786;19.520;2023-06-22T19:29:30;11.43;;;3.90;;
60935;SDS011;46804;51.786;19.520;2023-06-22T19:33:31;14.90;;;3.75;;
60935;SDS011;46804;51.786;19.520;2023-06-22T19:37:32;8.13;;;3.25;;
60935;SDS011;46804;51.786;19.520;2023-06-22T19:41:35;12.00;;;3.20;;
60935;SDS011;46804;51.786;19.520;2023-06-22T19:45:39;6.82;;;3.17;;
60935;SDS011;46804;51.786;19.520;2023-06-22T19:49:41;6.57;;;2.83;;
60935;SDS011;46804;51.786;19.520;2023-06-22T19:53:43;6.75;;;2.92;;
60935;SDS011;46804;51.786;19.520;2023-06-22T19:57:44;10.50;;;3.22;;
60935;SDS011;46804;51.786;19.520;2023-06-22T20:01:46;8.45;;;3.13;;
60935;SDS011;46804;51.786;19.520;2023-06-22T20:05:47;8.82;;;2.70;;
60935;SDS011;46804;51.786;19.520;2023-06-22T20:10:04;7.07;;;2.78;;
60935;SDS011;46804;51.786;19.520;2023-06-22T20:14:09;5.60;;;3.08;;
60935;SDS011;46804;51.786;19.520;2023-06-22T20:18:10;8.05;;;3.25;;
60935;SDS011;46804;51.786;19.520;2023-06-22T20:22:12;9.10;;;3.43;;
60935;SDS011;46804;51.786;19.520;2023-06-22T20:26:13;4.55;;;2.90;;
60935;SDS011;46804;51.786;19.520;2023-06-22T20:30:20;8.45;;;3.08;;
60935;SDS011;46804;51.786;19.520;2023-06-22T20:34:22;6.53;;;3.55;;
60935;SDS011;46804;51.786;19.520;2023-06-22T20:38:22;6.00;;;3.28;;
60935;SDS011;46804;51.786;19.520;2023-06-22T20:42:23;6.10;;;3.10;;
60935;SDS011;46804;51.786;19.520;2023-06-22T20:46:24;5.10;;;3.03;;
60935;SDS011;46804;51.786;19.520;2023-06-22T20:50:25;7.10;;;3.00;;
60935;SDS011;46804;51.786;19.520;2023-06-22T20:54:30;6.78;;;3.45;;
60935;SDS011;46804;51.786;19.520;2023-06-22T20:58:34;10.90;;;3.60;;
60935;SDS011;46804;51.786;19.520;2023-06-22T21:02:34;7.95;;;3.20;;
60935;SDS011;46804;51.786;19.520;2023-06-22T21:06:35;5.53;;;3.10;;
60935;SDS011;46804;51.786;19.520;2023-06-22T21:10:36;5.82;;;2.95;;
60935;SDS011;46804;51.786;19.520;2023-06-22T21:14:37;6.93;;;3.50;;
60935;SDS011;46804;51.786;19.520;2023-06-22T21:18:38;11.25;;;3.55;;
60935;SDS011;46804;51.786;19.520;2023-06-22T21:22:39;7.32;;;3.75;;
60935;SDS011;46804;51.786;19.520;2023-06-22T21:26:40;7.22;;;3.40;;
60935;SDS011;46804;51.786;19.520;2023-06-22T21:30:40;10.07;;;3.47;;
60935;SDS011;46804;51.786;19.520;2023-06-22T21:34:41;6.35;;;3.05;;
60935;SDS011;46804;51.786;19.520;2023-06-22T21:38:42;5.70;;;3.17;;
60935;SDS011;46804;51.786;19.520;2023-06-22T21:42:42;5.43;;;3.25;;
60935;SDS011;46804;51.786;19.520;2023-06-22T21:46:42;7.07;;;3.33;;
60935;SDS011;46804;51.786;19.520;2023-06-22T21:50:43;6.63;;;3.40;;
60935;SDS011;46804;51.786;19.520;2023-06-22T21:54:44;10.00;;;3.40;;
60935;SDS011;46804;51.786;19.520;2023-06-22T21:58:45;7.22;;;3.25;;
60935;SDS011;46804;51.786;19.520;2023-06-22T22:02:46;10.80;;;3.10;;
60935;SDS011;46804;51.786;19.520;2023-06-22T22:06:46;6.40;;;3.20;;
60935;SDS011;46804;51.786;19.520;2023-06-22T22:10:50;15.05;;;3.75;;
60935;SDS011;46804;51.786;19.520;2023-06-22T22:14:51;6.68;;;3.10;;
60935;SDS011;46804;51.786;19.520;2023-06-22T22:18:52;7.32;;;3.50;;
60935;SDS011;46804;51.786;19.520;2023-06-22T22:22:52;5.40;;;3.13;;
60935;SDS011;46804;51.786;19.520;2023-06-22T22:26:53;5.05;;;3.20;;
60935;SDS011;46804;51.786;19.520;2023-06-22T22:30:54;6.90;;;3.35;;
60935;SDS011;46804;51.786;19.520;2023-06-22T22:34:55;7.53;;;3.53;;
60935;SDS011;46804;51.786;19.520;2023-06-22T22:38:55;5.57;;;3.10;;
60935;SDS011;46804;51.786;19.520;2023-06-22T22:42:56;4.82;;;3.17;;
60935;SDS011;46804;51.786;19.520;2023-06-22T22:46:57;7.30;;;3.10;;
60935;SDS011;46804;51.786;19.520;2023-06-22T22:50:58;6.30;;;3.47;;
60935;SDS011;46804;51.786;19.520;2023-06-22T22:55:01;9.40;;;3.85;;
60935;SDS011;46804;51.786;19.520;2023-06-22T23:15:16;7.40;;;3.42;;
60935;SDS011;46804;51.786;19.520;2023-06-22T23:19:17;7.40;;;3.92;;
60935;SDS011;46804;51.786;19.520;2023-06-22T23:23:17;6.30;;;3.70;;
60935;SDS011;46804;51.786;19.520;2023-06-22T23:27:19;8.63;;;4.05;;
60935;SDS011;46804;51.786;19.520;2023-06-22T23:31:19;6.28;;;3.92;;
60935;SDS011;46804;51.786;19.520;2023-06-22T23:35:20;7.90;;;3.92;;
60935;SDS011;46804;51.786;19.520;2023-06-22T23:39:21;10.35;;;4.28;;
60935;SDS011;46804;51.786;19.520;2023-06-22T23:43:21;7.97;;;4.38;;
60935;SDS011;46804;51.786;19.520;2023-06-22T23:47:22;7.95;;;3.60;;
60935;SDS011;46804;51.786;19.520;2023-06-22T23:51:23;6.55;;;4.10;;
60935;SDS011;46804;51.786;19.520;2023-06-22T23:55:27;7.32;;;3.80;;
60935;SDS011;46804;51.786;19.520;2023-06-22T23:59:28;10.88;;;3.90;;
